createdAt,value
2018-10-16T00:00:09.790Z,-0.29
2018-10-16T00:01:10.262Z,-0.28
2018-10-16T00:02:10.729Z,-0.24
2018-10-16T00:03:11.277Z,-0.22
2018-10-16T00:04:11.669Z,-0.26
2018-10-16T00:05:12.138Z,-0.27
2018-10-16T00:06:12.608Z,-0.34
2018-10-16T00:07:13.080Z,-0.30
2018-10-16T00:08:13.546Z,-0.26
2018-10-16T00:09:14.016Z,-0.25
2018-10-16T00:10:14.486Z,-0.26
2018-10-16T00:11:14.956Z,-0.26
2018-10-16T00:12:15.426Z,-0.28
2018-10-16T00:13:15.897Z,-0.30
2018-10-16T00:14:16.367Z,-0.26
2018-10-16T00:15:16.840Z,-0.24
2018-10-16T00:16:17.306Z,-0.30
2018-10-16T00:17:17.778Z,-0.34
2018-10-16T00:18:18.247Z,-0.30
2018-10-16T00:19:18.718Z,-0.26
2018-10-16T00:20:19.197Z,-0.30
2018-10-16T00:21:19.660Z,-0.34
2018-10-16T00:22:20.132Z,-0.36
2018-10-16T00:23:20.602Z,-0.24
2018-10-16T00:24:21.074Z,-0.31
2018-10-16T00:25:21.547Z,-0.38
2018-10-16T00:26:22.020Z,-0.44
2018-10-16T00:27:22.488Z,-0.45
2018-10-16T00:28:22.960Z,-0.47
2018-10-16T00:29:23.434Z,-0.47
2018-10-16T00:30:23.907Z,-0.47
2018-10-16T00:31:24.377Z,-0.42
2018-10-16T00:32:24.895Z,-0.32
2018-10-16T00:33:25.324Z,-0.28
2018-10-16T00:34:25.794Z,-0.26
2018-10-16T00:35:26.268Z,-0.32
2018-10-16T00:36:26.744Z,-0.40
2018-10-16T00:37:27.217Z,-0.47
2018-10-16T00:38:27.686Z,-0.48
2018-10-16T00:39:28.159Z,-0.46
2018-10-16T00:40:28.635Z,-0.46
2018-10-16T00:41:29.107Z,-0.54
2018-10-16T00:42:29.581Z,-0.57
2018-10-16T00:43:30.052Z,-0.54
2018-10-16T00:44:30.528Z,-0.44
2018-10-16T00:45:31.000Z,-0.44
2018-10-16T00:46:31.473Z,-0.40
2018-10-16T00:47:31.944Z,-0.39
2018-10-16T00:48:32.417Z,-0.43
2018-10-16T00:49:32.891Z,-0.44
2018-10-16T00:50:33.363Z,-0.44
2018-10-16T00:51:33.835Z,-0.38
2018-10-16T00:52:34.306Z,-0.30
2018-10-16T00:53:34.782Z,-0.30
2018-10-16T00:54:35.256Z,-0.36
2018-10-16T00:55:35.725Z,-0.37
2018-10-16T00:56:36.196Z,-0.35
2018-10-16T00:57:36.720Z,-0.34
2018-10-16T00:58:37.141Z,-0.28
2018-10-16T00:59:37.609Z,-0.34
2018-10-16T01:00:38.080Z,-0.28
2018-10-16T01:01:38.588Z,-0.22
2018-10-16T01:02:39.053Z,-0.20
2018-10-16T01:03:39.491Z,-0.28
2018-10-16T01:04:39.962Z,-0.29
2018-10-16T01:05:40.432Z,-0.24
2018-10-16T01:06:40.904Z,-0.26
2018-10-16T01:07:41.370Z,-0.30
2018-10-16T01:08:41.892Z,-0.34
2018-10-16T01:09:42.311Z,-0.38
2018-10-16T01:10:42.784Z,-0.36
2018-10-16T01:11:43.251Z,-0.28
2018-10-16T01:12:43.720Z,-0.18
2018-10-16T01:13:44.190Z,-0.19
2018-10-16T01:14:44.661Z,-0.30
2018-10-16T01:15:45.126Z,-0.28
2018-10-16T01:16:45.596Z,-0.27
2018-10-16T01:17:46.068Z,-0.30
2018-10-16T01:18:46.540Z,-0.34
2018-10-16T01:19:47.005Z,-0.36
2018-10-16T01:20:47.474Z,-0.34
2018-10-16T01:21:47.948Z,-0.34
2018-10-16T01:22:48.417Z,-0.36
2018-10-16T01:23:48.882Z,-0.35
2018-10-16T01:24:49.353Z,-0.34
2018-10-16T01:25:49.825Z,-0.34
2018-10-16T01:26:50.292Z,-0.38
2018-10-16T01:27:50.761Z,-0.46
2018-10-16T01:28:51.232Z,-0.44
2018-10-16T01:29:51.704Z,-0.46
2018-10-16T01:30:52.173Z,-0.56
2018-10-16T01:31:52.644Z,-0.54
2018-10-16T01:32:53.113Z,-0.43
2018-10-16T01:33:53.586Z,-0.46
2018-10-16T01:34:54.059Z,-0.54
2018-10-16T01:35:54.524Z,-0.64
2018-10-16T01:36:54.996Z,-0.63
2018-10-16T01:37:55.475Z,-0.64
2018-10-16T01:38:55.939Z,-0.60
2018-10-16T01:39:56.409Z,-0.58
2018-10-16T01:40:56.882Z,-0.60
2018-10-16T01:41:57.353Z,-0.69
2018-10-16T01:42:57.824Z,-0.65
2018-10-16T01:43:58.297Z,-0.66
2018-10-16T01:44:58.770Z,-0.66
2018-10-16T01:45:59.250Z,-0.66
2018-10-16T01:46:59.746Z,-0.69
2018-10-16T01:48:00.186Z,-0.69
2018-10-16T01:49:00.657Z,-0.66
2018-10-16T01:50:01.130Z,-0.66
2018-10-16T01:51:01.603Z,-0.72
2018-10-16T01:52:02.075Z,-0.74
2018-10-16T01:53:02.547Z,-0.70
2018-10-16T01:54:03.024Z,-0.68
2018-10-16T01:55:03.497Z,-0.62
2018-10-16T01:56:03.966Z,-0.56
2018-10-16T01:57:04.440Z,-0.58
2018-10-16T01:58:04.912Z,-0.62
2018-10-16T01:59:05.386Z,-0.62
2018-10-16T02:00:05.860Z,-0.63
2018-10-16T02:01:06.331Z,-0.64
2018-10-16T02:02:06.805Z,-0.62
2018-10-16T02:03:07.279Z,-0.64
2018-10-16T02:04:07.807Z,-0.72
2018-10-16T02:05:08.223Z,-0.74
2018-10-16T02:06:08.696Z,-0.75
2018-10-16T02:07:09.174Z,-0.78
2018-10-16T02:08:09.641Z,-0.76
2018-10-16T02:09:10.114Z,-0.78
2018-10-16T02:10:10.585Z,-0.82
2018-10-16T02:11:11.058Z,-0.82
2018-10-16T02:12:11.534Z,-0.70
2018-10-16T02:13:12.001Z,-0.68
2018-10-16T02:14:12.475Z,-0.60
2018-10-16T02:15:12.946Z,-0.58
2018-10-16T02:16:13.414Z,-0.66
2018-10-16T02:17:13.884Z,-0.75
2018-10-16T02:18:14.355Z,-0.78
2018-10-16T02:19:14.829Z,-0.80
2018-10-16T02:20:15.295Z,-0.80
2018-10-16T02:21:15.765Z,-0.81
2018-10-16T02:22:16.235Z,-0.82
2018-10-16T02:23:16.705Z,-0.82
2018-10-16T02:24:17.175Z,-0.80
2018-10-16T02:25:17.647Z,-0.79
2018-10-16T02:26:18.113Z,-0.74
2018-10-16T02:27:18.583Z,-0.78
2018-10-16T02:28:19.054Z,-0.82
2018-10-16T02:29:19.521Z,-0.86
2018-10-16T02:30:19.992Z,-0.88
2018-10-16T02:31:20.461Z,-0.91
2018-10-16T02:32:20.930Z,-0.88
2018-10-16T02:33:21.398Z,-0.88
2018-10-16T02:34:21.870Z,-0.88
2018-10-16T02:35:22.337Z,-0.86
2018-10-16T02:36:22.807Z,-0.78
2018-10-16T02:37:23.276Z,-0.72
2018-10-16T02:38:23.746Z,-0.77
2018-10-16T02:39:24.215Z,-0.78
2018-10-16T02:40:24.683Z,-0.80
2018-10-16T02:41:25.153Z,-0.84
2018-10-16T02:42:25.622Z,-0.88
2018-10-16T02:43:26.095Z,-0.90
2018-10-16T02:44:26.563Z,-0.91
2018-10-16T02:45:27.032Z,-0.94
2018-10-16T02:46:27.503Z,-0.84
2018-10-16T02:47:27.973Z,-0.80
2018-10-16T02:48:28.443Z,-0.80
2018-10-16T02:49:28.914Z,-0.88
2018-10-16T02:50:29.386Z,-0.89
2018-10-16T02:51:29.862Z,-0.90
2018-10-16T02:52:30.324Z,-0.91
2018-10-16T02:53:30.796Z,-0.96
2018-10-16T02:54:31.317Z,-0.96
2018-10-16T02:55:31.740Z,-0.97
2018-10-16T02:56:32.209Z,-0.95
2018-10-16T02:57:32.679Z,-0.88
2018-10-16T02:58:33.150Z,-0.84
2018-10-16T02:59:33.621Z,-0.84
2018-10-16T03:00:34.093Z,-0.86
2018-10-16T03:01:34.565Z,-0.88
2018-10-16T03:02:35.036Z,-0.92
2018-10-16T03:03:35.512Z,-0.92
2018-10-16T03:04:35.979Z,-0.94
2018-10-16T03:05:36.463Z,-0.96
2018-10-16T03:06:36.925Z,-0.98
2018-10-16T03:07:37.400Z,-0.98
2018-10-16T03:08:37.871Z,-0.94
2018-10-16T03:09:38.340Z,-0.98
2018-10-16T03:10:38.813Z,-0.96
2018-10-16T03:11:39.285Z,-0.93
2018-10-16T03:12:39.757Z,-0.87
2018-10-16T03:13:40.237Z,-0.88
2018-10-16T03:14:40.704Z,-0.88
2018-10-16T03:15:41.176Z,-0.86
2018-10-16T03:16:41.649Z,-0.80
2018-10-16T03:17:42.125Z,-0.80
2018-10-16T03:18:42.599Z,-0.78
2018-10-16T03:19:43.067Z,-0.73
2018-10-16T03:20:43.539Z,-0.72
2018-10-16T03:21:44.018Z,-0.74
2018-10-16T03:22:44.487Z,-0.79
2018-10-16T03:23:44.962Z,-0.80
2018-10-16T03:24:45.432Z,-0.77
2018-10-16T03:25:45.904Z,-0.71
2018-10-16T03:26:46.378Z,-0.68
2018-10-16T03:27:46.852Z,-0.71
2018-10-16T03:28:47.322Z,-0.70
2018-10-16T03:29:47.795Z,-0.78
2018-10-16T03:30:48.271Z,-0.88
2018-10-16T03:31:48.745Z,-0.95
2018-10-16T03:32:49.213Z,-0.86
2018-10-16T03:33:49.684Z,-0.76
2018-10-16T03:34:50.157Z,-0.75
2018-10-16T03:35:50.627Z,-0.74
2018-10-16T03:36:51.098Z,-0.80
2018-10-16T03:37:51.569Z,-0.76
2018-10-16T03:38:52.039Z,-0.70
2018-10-16T03:39:52.564Z,-0.70
2018-10-16T03:40:52.978Z,-0.76
2018-10-16T03:41:53.452Z,-0.80
2018-10-16T03:42:53.919Z,-0.83
2018-10-16T03:43:54.389Z,-0.82
2018-10-16T03:44:54.858Z,-0.72
2018-10-16T03:45:55.327Z,-0.76
2018-10-16T03:46:55.797Z,-0.78
2018-10-16T03:47:56.269Z,-0.81
2018-10-16T03:48:56.742Z,-0.81
2018-10-16T03:49:57.208Z,-0.86
2018-10-16T03:50:57.674Z,-0.90
2018-10-16T03:51:58.144Z,-0.92
2018-10-16T03:52:58.613Z,-0.93
2018-10-16T03:53:59.082Z,-0.90
2018-10-16T03:54:59.550Z,-0.89
2018-10-16T03:56:00.022Z,-0.90
2018-10-16T03:57:00.491Z,-0.88
2018-10-16T03:58:00.959Z,-0.83
2018-10-16T03:59:01.429Z,-0.81
2018-10-16T04:00:01.898Z,-0.82
2018-10-16T04:01:02.368Z,-0.79
2018-10-16T04:02:02.838Z,-0.72
2018-10-16T04:03:03.304Z,-0.76
2018-10-16T04:04:03.775Z,-0.80
2018-10-16T04:05:04.243Z,-0.79
2018-10-16T04:06:04.714Z,-0.74
2018-10-16T04:07:05.186Z,-0.69
2018-10-16T04:08:05.655Z,-0.68
2018-10-16T04:09:06.123Z,-0.70
2018-10-16T04:10:06.596Z,-0.71
2018-10-16T04:11:07.066Z,-0.70
2018-10-16T04:12:07.538Z,-0.70
2018-10-16T04:13:08.011Z,-0.76
2018-10-16T04:14:08.513Z,-0.80
2018-10-16T04:15:08.946Z,-0.82
2018-10-16T04:16:09.417Z,-0.79
2018-10-16T04:17:09.886Z,-0.78
2018-10-16T04:18:10.360Z,-0.72
2018-10-16T04:19:10.829Z,-0.76
2018-10-16T04:20:11.356Z,-0.76
2018-10-16T04:21:11.769Z,-0.80
2018-10-16T04:22:12.296Z,-0.76
2018-10-16T04:23:12.714Z,-0.72
2018-10-16T04:24:13.188Z,-0.70
2018-10-16T04:25:13.656Z,-0.65
2018-10-16T04:26:14.130Z,-0.64
2018-10-16T04:27:14.602Z,-0.68
2018-10-16T04:28:15.072Z,-0.74
2018-10-16T04:29:15.597Z,-0.80
2018-10-16T04:30:16.016Z,-0.76
2018-10-16T04:31:16.489Z,-0.70
2018-10-16T04:32:16.963Z,-0.64
2018-10-16T04:33:17.433Z,-0.62
2018-10-16T04:34:17.911Z,-0.64
2018-10-16T04:35:18.378Z,-0.64
2018-10-16T04:36:18.850Z,-0.66
2018-10-16T04:37:19.325Z,-0.66
2018-10-16T04:38:19.794Z,-0.66
2018-10-16T04:39:20.268Z,-0.68
2018-10-16T04:40:20.741Z,-0.67
2018-10-16T04:41:21.214Z,-0.69
2018-10-16T04:42:21.685Z,-0.65
2018-10-16T04:43:22.162Z,-0.64
2018-10-16T04:44:22.639Z,-0.63
2018-10-16T04:45:23.105Z,-0.62
2018-10-16T04:46:23.578Z,-0.68
2018-10-16T04:47:24.052Z,-0.78
2018-10-16T04:48:24.523Z,-0.80
2018-10-16T04:49:24.995Z,-0.80
2018-10-16T04:50:25.469Z,-0.83
2018-10-16T04:51:25.943Z,-0.86
2018-10-16T04:52:26.417Z,-0.88
2018-10-16T04:53:26.887Z,-0.96
2018-10-16T04:54:27.360Z,-0.98
2018-10-16T04:55:27.830Z,-0.98
2018-10-16T04:56:28.304Z,-0.96
2018-10-16T04:57:28.774Z,-0.88
2018-10-16T04:58:29.257Z,-0.84
2018-10-16T04:59:29.716Z,-0.77
2018-10-16T05:00:30.188Z,-0.76
2018-10-16T05:01:30.660Z,-0.76
2018-10-16T05:02:31.129Z,-0.74
2018-10-16T05:03:31.599Z,-0.76
2018-10-16T05:04:32.073Z,-0.70
2018-10-16T05:05:32.539Z,-0.64
2018-10-16T05:06:33.016Z,-0.60
2018-10-16T05:07:33.479Z,-0.62
2018-10-16T05:08:33.948Z,-0.64
2018-10-16T05:09:34.418Z,-0.66
2018-10-16T05:10:34.888Z,-0.68
2018-10-16T05:11:35.357Z,-0.64
2018-10-16T05:12:35.827Z,-0.62
2018-10-16T05:13:36.296Z,-0.66
2018-10-16T05:14:36.765Z,-0.70
2018-10-16T05:15:37.294Z,-0.74
2018-10-16T05:16:37.705Z,-0.74
2018-10-16T05:17:38.176Z,-0.74
2018-10-16T05:18:38.643Z,-0.75
2018-10-16T05:19:39.112Z,-0.76
2018-10-16T05:20:39.581Z,-0.72
2018-10-16T05:21:40.064Z,-0.70
2018-10-16T05:22:40.517Z,-0.67
2018-10-16T05:23:40.986Z,-0.70
2018-10-16T05:24:41.458Z,-0.72
2018-10-16T05:25:41.925Z,-0.75
2018-10-16T05:26:42.397Z,-0.78
2018-10-16T05:27:42.865Z,-0.80
2018-10-16T05:28:43.335Z,-0.83
2018-10-16T05:29:43.805Z,-0.82
2018-10-16T05:30:44.273Z,-0.85
2018-10-16T05:31:44.743Z,-0.84
2018-10-16T05:32:45.216Z,-0.84
2018-10-16T05:33:45.684Z,-0.83
2018-10-16T05:34:46.159Z,-0.82
2018-10-16T05:35:46.623Z,-0.82
2018-10-16T05:36:47.094Z,-0.84
2018-10-16T05:37:47.563Z,-0.84
2018-10-16T05:38:48.035Z,-0.86
2018-10-16T05:39:48.506Z,-0.85
2018-10-16T05:40:48.977Z,-0.85
2018-10-16T05:41:49.448Z,-0.84
2018-10-16T05:42:49.919Z,-0.80
2018-10-16T05:43:50.390Z,-0.80
2018-10-16T05:44:50.864Z,-0.81
2018-10-16T05:45:51.331Z,-0.80
2018-10-16T05:46:51.805Z,-0.78
2018-10-16T05:47:52.274Z,-0.78
2018-10-16T05:48:52.745Z,-0.79
2018-10-16T05:49:53.217Z,-0.77
2018-10-16T05:50:53.687Z,-0.78
2018-10-16T05:51:54.163Z,-0.74
2018-10-16T05:52:54.631Z,-0.72
2018-10-16T05:53:55.148Z,-0.70
2018-10-16T05:54:55.586Z,-0.70
2018-10-16T05:55:56.047Z,-0.71
2018-10-16T05:56:56.520Z,-0.70
2018-10-16T05:57:56.990Z,-0.69
2018-10-16T05:58:57.462Z,-0.68
2018-10-16T05:59:57.939Z,-0.66
2018-10-16T06:00:58.459Z,-0.64
2018-10-16T06:01:58.880Z,-0.58
2018-10-16T06:02:59.353Z,-0.55
2018-10-16T06:03:59.829Z,-0.48
2018-10-16T06:05:00.299Z,-0.44
2018-10-16T06:06:00.769Z,-0.46
2018-10-16T06:07:01.247Z,-0.41
2018-10-16T06:08:01.716Z,-0.42
2018-10-16T06:09:02.191Z,-0.42
2018-10-16T06:10:02.661Z,-0.43
2018-10-16T06:11:03.135Z,-0.42
2018-10-16T06:12:03.628Z,-0.36
2018-10-16T06:13:04.081Z,-0.33
2018-10-16T06:14:04.557Z,-0.30
2018-10-16T06:15:05.030Z,-0.25
2018-10-16T06:16:05.617Z,-0.20
2018-10-16T06:17:05.975Z,-0.18
2018-10-16T06:18:06.450Z,-0.12
2018-10-16T06:19:06.919Z,-0.08
2018-10-16T06:20:07.394Z,-0.04
2018-10-16T06:21:07.866Z,-0.01
2018-10-16T06:22:08.339Z,0.04
2018-10-16T06:23:08.810Z,0.06
2018-10-16T06:24:09.283Z,0.07
2018-10-16T06:25:09.755Z,0.12
2018-10-16T06:26:10.277Z,0.14
2018-10-16T06:27:10.701Z,0.20
2018-10-16T06:28:11.171Z,0.28
2018-10-16T06:29:11.642Z,0.33
2018-10-16T06:30:12.137Z,0.36
2018-10-16T06:31:12.584Z,0.38
2018-10-16T06:32:13.057Z,0.42
2018-10-16T06:33:13.600Z,0.38
2018-10-16T06:34:13.996Z,0.36
2018-10-16T06:35:14.467Z,0.36
2018-10-16T06:36:14.938Z,0.37
2018-10-16T06:37:15.407Z,0.40
2018-10-16T06:38:15.878Z,0.40
2018-10-16T06:39:16.347Z,0.46
2018-10-16T06:40:16.818Z,0.49
2018-10-16T06:41:17.350Z,0.56
2018-10-16T06:42:17.757Z,0.63
2018-10-16T06:43:18.225Z,0.72
2018-10-16T06:44:18.698Z,0.76
2018-10-16T06:45:19.181Z,0.78
2018-10-16T06:46:19.640Z,0.81
2018-10-16T06:47:20.207Z,0.83
2018-10-16T06:48:20.732Z,0.87
2018-10-16T06:49:21.044Z,0.88
2018-10-16T06:50:21.511Z,0.86
2018-10-16T06:51:21.982Z,0.82
2018-10-16T06:52:22.457Z,0.87
2018-10-16T06:53:22.990Z,0.92
2018-10-16T06:54:23.390Z,0.95
2018-10-16T06:55:23.861Z,0.96
2018-10-16T06:56:24.331Z,0.97
2018-10-16T06:57:24.805Z,0.97
2018-10-16T06:58:25.271Z,0.89
2018-10-16T06:59:25.743Z,0.77
2018-10-16T07:00:26.214Z,0.75
2018-10-16T07:01:26.685Z,0.79
2018-10-16T07:02:27.153Z,0.82
2018-10-16T07:03:27.624Z,0.80
2018-10-16T07:04:28.095Z,0.78
2018-10-16T07:05:28.568Z,0.84
2018-10-16T07:06:29.135Z,0.89
2018-10-16T07:07:29.523Z,0.88
2018-10-16T07:08:29.984Z,0.91
2018-10-16T07:09:30.452Z,0.97
2018-10-16T07:10:30.923Z,1.05
2018-10-16T07:11:31.397Z,1.12
2018-10-16T07:12:31.874Z,1.14
2018-10-16T07:13:32.341Z,1.19
2018-10-16T07:14:32.815Z,1.20
2018-10-16T07:15:33.285Z,1.18
2018-10-16T07:16:33.761Z,1.20
2018-10-16T07:17:34.232Z,1.22
2018-10-16T07:18:34.705Z,1.26
2018-10-16T07:19:35.176Z,1.32
2018-10-16T07:20:35.652Z,1.30
2018-10-16T07:21:36.230Z,1.34
2018-10-16T07:22:36.595Z,1.26
2018-10-16T07:23:37.181Z,1.16
2018-10-16T07:24:37.544Z,1.13
2018-10-16T07:25:38.021Z,1.18
2018-10-16T07:26:38.541Z,1.20
2018-10-16T07:27:38.966Z,1.24
2018-10-16T07:28:39.441Z,1.30
2018-10-16T07:29:39.912Z,1.36
2018-10-16T07:30:40.390Z,1.42
2018-10-16T07:31:40.858Z,1.48
2018-10-16T07:32:41.335Z,1.56
2018-10-16T07:33:41.807Z,1.68
2018-10-16T07:34:42.281Z,1.80
2018-10-16T07:35:42.755Z,1.88
2018-10-16T07:36:43.226Z,1.98
2018-10-16T07:37:43.758Z,1.90
2018-10-16T07:38:44.195Z,1.80
2018-10-16T07:39:44.645Z,1.66
2018-10-16T07:40:45.120Z,1.66
2018-10-16T07:41:45.593Z,1.70
2018-10-16T07:42:46.064Z,1.66
2018-10-16T07:43:46.544Z,1.72
2018-10-16T07:44:47.009Z,1.75
2018-10-16T07:45:47.480Z,1.78
2018-10-16T07:46:47.952Z,1.86
2018-10-16T07:47:48.424Z,1.92
2018-10-16T07:48:48.896Z,1.98
2018-10-16T07:49:49.370Z,2.04
2018-10-16T07:50:49.837Z,2.08
2018-10-16T07:51:50.308Z,2.12
2018-10-16T07:52:50.781Z,2.17
2018-10-16T07:53:51.265Z,2.18
2018-10-16T07:54:51.721Z,2.17
2018-10-16T07:55:52.191Z,2.19
2018-10-16T07:56:52.670Z,2.19
2018-10-16T07:57:53.140Z,2.21
2018-10-16T07:58:53.602Z,2.18
2018-10-16T07:59:54.072Z,2.16
2018-10-16T08:00:54.544Z,2.24
2018-10-16T08:01:55.013Z,2.24
2018-10-16T08:02:55.483Z,2.28
2018-10-16T08:03:55.954Z,2.20
2018-10-16T08:04:56.423Z,1.94
2018-10-16T08:05:56.893Z,1.98
2018-10-16T08:06:57.364Z,1.96
2018-10-16T08:07:57.835Z,1.85
2018-10-16T08:08:58.304Z,1.74
2018-10-16T08:09:58.778Z,1.68
2018-10-16T08:10:59.244Z,1.77
2018-10-16T08:11:59.770Z,1.92
2018-10-16T08:13:00.189Z,2.15
2018-10-16T08:14:00.658Z,2.34
2018-10-16T08:15:01.131Z,2.40
2018-10-16T08:16:01.603Z,2.44
2018-10-16T08:17:02.142Z,2.46
2018-10-16T08:18:02.544Z,2.42
2018-10-16T08:19:03.015Z,2.31
2018-10-16T08:20:03.487Z,2.19
2018-10-16T08:21:03.959Z,2.06
2018-10-16T08:22:04.432Z,2.10
2018-10-16T08:23:04.904Z,2.22
2018-10-16T08:24:05.374Z,2.26
2018-10-16T08:25:05.849Z,2.18
2018-10-16T08:26:06.323Z,2.14
2018-10-16T08:27:06.795Z,2.16
2018-10-16T08:28:07.268Z,2.20
2018-10-16T08:29:07.742Z,2.20
2018-10-16T08:30:08.271Z,2.21
2018-10-16T08:31:08.689Z,2.18
2018-10-16T08:32:09.164Z,2.31
2018-10-16T08:33:09.638Z,2.44
2018-10-16T08:34:10.149Z,2.48
2018-10-16T08:35:10.587Z,2.48
2018-10-16T08:36:11.092Z,2.47
2018-10-16T08:37:11.550Z,2.40
2018-10-16T08:38:12.009Z,2.38
2018-10-16T08:39:12.482Z,2.34
2018-10-16T08:40:12.956Z,2.30
2018-10-16T08:41:13.432Z,2.34
2018-10-16T08:42:13.908Z,2.32
2018-10-16T08:43:14.379Z,2.34
2018-10-16T08:44:14.854Z,2.34
2018-10-16T08:45:15.327Z,2.38
2018-10-16T08:46:15.802Z,2.50
2018-10-16T08:47:16.354Z,2.54
2018-10-16T08:48:16.751Z,2.70
2018-10-16T08:49:17.226Z,2.60
2018-10-16T08:50:17.697Z,2.40
2018-10-16T08:51:18.172Z,2.48
2018-10-16T08:52:18.643Z,2.59
2018-10-16T08:53:19.122Z,2.62
2018-10-16T08:54:19.590Z,2.66
2018-10-16T08:55:20.064Z,2.72
2018-10-16T08:56:20.536Z,2.78
2018-10-16T08:57:21.061Z,2.85
2018-10-16T08:58:21.484Z,2.93
2018-10-16T08:59:21.953Z,2.79
2018-10-16T09:00:22.425Z,2.79
2018-10-16T09:01:22.897Z,2.82
2018-10-16T09:02:23.373Z,2.86
2018-10-16T09:03:23.842Z,3.02
2018-10-16T09:04:24.314Z,3.13
2018-10-16T09:05:24.785Z,3.24
2018-10-16T09:06:25.258Z,3.16
2018-10-16T09:07:25.727Z,3.10
2018-10-16T09:08:26.199Z,3.04
2018-10-16T09:09:26.672Z,2.99
2018-10-16T09:10:27.142Z,3.02
2018-10-16T09:11:27.614Z,3.08
2018-10-16T09:12:28.083Z,3.14
2018-10-16T09:13:28.553Z,3.14
2018-10-16T09:14:29.091Z,3.20
2018-10-16T09:15:29.499Z,3.24
2018-10-16T09:16:29.967Z,3.36
2018-10-16T09:17:30.491Z,3.52
2018-10-16T09:18:30.907Z,3.72
2018-10-16T09:19:31.377Z,3.88
2018-10-16T09:20:31.848Z,3.96
2018-10-16T09:21:32.320Z,4.00
2018-10-16T09:22:32.793Z,3.96
2018-10-16T09:23:33.260Z,3.84
2018-10-16T09:24:33.751Z,3.96
2018-10-16T09:25:34.203Z,3.97
2018-10-16T09:26:34.674Z,3.96
2018-10-16T09:27:35.146Z,4.05
2018-10-16T09:28:35.616Z,4.10
2018-10-16T09:29:36.087Z,3.94
2018-10-16T09:30:36.562Z,3.82
2018-10-16T09:31:37.036Z,3.74
2018-10-16T09:32:37.539Z,3.66
2018-10-16T09:33:37.976Z,3.72
2018-10-16T09:34:38.449Z,3.77
2018-10-16T09:35:38.920Z,3.73
2018-10-16T09:36:39.436Z,3.78
2018-10-16T09:37:39.927Z,3.86
2018-10-16T09:38:40.343Z,3.91
2018-10-16T09:39:40.812Z,3.80
2018-10-16T09:40:41.287Z,3.68
2018-10-16T09:41:41.759Z,3.64
2018-10-16T09:42:42.284Z,3.58
2018-10-16T09:43:42.707Z,3.65
2018-10-16T09:44:43.210Z,3.73
2018-10-16T09:45:43.658Z,3.87
2018-10-16T09:46:44.131Z,3.93
2018-10-16T09:47:44.608Z,3.89
2018-10-16T09:48:45.085Z,3.88
2018-10-16T09:49:45.560Z,3.93
2018-10-16T09:50:46.031Z,4.02
2018-10-16T09:51:46.505Z,4.16
2018-10-16T09:52:46.981Z,4.36
2018-10-16T09:53:47.457Z,4.38
2018-10-16T09:54:47.932Z,4.28
2018-10-16T09:55:48.406Z,4.14
2018-10-16T09:56:48.885Z,4.04
2018-10-16T09:57:49.356Z,4.10
2018-10-16T09:58:49.832Z,4.00
2018-10-16T09:59:50.304Z,3.82
2018-10-16T10:00:50.842Z,3.73
2018-10-16T10:01:51.253Z,3.86
2018-10-16T10:02:51.727Z,3.99
2018-10-16T10:03:52.205Z,4.07
2018-10-16T10:04:52.676Z,4.06
2018-10-16T10:05:53.149Z,4.00
2018-10-16T10:06:53.624Z,3.94
2018-10-16T10:07:54.097Z,3.70
2018-10-16T10:08:54.572Z,3.56
2018-10-16T10:09:55.046Z,3.52
2018-10-16T10:10:55.537Z,3.64
2018-10-16T10:11:55.991Z,3.74
2018-10-16T10:12:56.468Z,3.78
2018-10-16T10:13:56.941Z,3.80
2018-10-16T10:14:57.414Z,3.92
2018-10-16T10:15:57.886Z,4.06
2018-10-16T10:16:58.359Z,4.12
2018-10-16T10:17:58.832Z,4.22
2018-10-16T10:18:59.302Z,4.32
2018-10-16T10:19:59.775Z,4.42
2018-10-16T10:21:00.247Z,4.58
2018-10-16T10:22:00.722Z,4.46
2018-10-16T10:23:01.192Z,4.30
2018-10-16T10:24:01.666Z,4.23
2018-10-16T10:25:02.208Z,4.24
2018-10-16T10:26:02.611Z,4.36
2018-10-16T10:27:03.081Z,4.52
2018-10-16T10:28:03.856Z,4.60
2018-10-16T10:29:04.026Z,4.66
2018-10-16T10:30:04.699Z,4.67
2018-10-16T10:31:04.978Z,4.69
2018-10-16T10:32:05.441Z,4.58
2018-10-16T10:33:05.914Z,4.43
2018-10-16T10:34:06.384Z,4.32
2018-10-16T10:35:06.858Z,4.22
2018-10-16T10:36:07.326Z,4.22
2018-10-16T10:37:07.796Z,4.28
2018-10-16T10:38:08.268Z,4.36
2018-10-16T10:39:08.740Z,4.42
2018-10-16T10:40:09.209Z,4.45
2018-10-16T10:41:09.680Z,4.46
2018-10-16T10:42:10.208Z,4.44
2018-10-16T10:43:10.625Z,4.43
2018-10-16T10:44:11.095Z,4.28
2018-10-16T10:45:11.565Z,4.17
2018-10-16T10:46:12.037Z,4.12
2018-10-16T10:47:12.511Z,4.15
2018-10-16T10:48:12.975Z,4.16
2018-10-16T10:49:13.446Z,4.10
2018-10-16T10:50:14.089Z,4.06
2018-10-16T10:51:14.686Z,4.08
2018-10-16T10:52:14.857Z,4.08
2018-10-16T10:53:15.380Z,4.00
2018-10-16T10:54:15.803Z,3.96
2018-10-16T10:55:16.271Z,3.99
2018-10-16T10:56:16.743Z,4.04
2018-10-16T10:57:17.289Z,4.05
2018-10-16T10:58:17.685Z,4.14
2018-10-16T10:59:18.157Z,4.22
2018-10-16T11:00:18.629Z,4.27
2018-10-16T11:01:19.100Z,4.24
2018-10-16T11:02:19.572Z,4.22
2018-10-16T11:03:20.161Z,4.18
2018-10-16T11:04:20.515Z,4.16
2018-10-16T11:05:20.989Z,4.09
2018-10-16T11:06:21.462Z,4.04
2018-10-16T11:07:21.936Z,4.08
2018-10-16T11:08:22.410Z,4.09
2018-10-16T11:09:22.882Z,4.10
2018-10-16T11:10:23.355Z,4.09
2018-10-16T11:11:23.831Z,4.19
2018-10-16T11:12:24.303Z,4.30
2018-10-16T11:13:24.779Z,4.38
2018-10-16T11:14:25.254Z,4.38
2018-10-16T11:15:25.730Z,4.42
2018-10-16T11:16:26.201Z,4.48
2018-10-16T11:17:26.683Z,4.51
2018-10-16T11:18:27.152Z,4.52
2018-10-16T11:19:27.669Z,4.60
2018-10-16T11:20:28.102Z,4.58
2018-10-16T11:21:28.578Z,4.52
2018-10-16T11:22:29.054Z,4.53
2018-10-16T11:23:29.531Z,4.64
2018-10-16T11:24:30.003Z,4.70
2018-10-16T11:25:30.477Z,4.64
2018-10-16T11:26:30.953Z,4.54
2018-10-16T11:27:31.429Z,4.44
2018-10-16T11:28:31.903Z,4.30
2018-10-16T11:29:32.381Z,4.24
2018-10-16T11:30:32.855Z,4.25
2018-10-16T11:31:33.329Z,4.20
2018-10-16T11:32:33.803Z,4.19
2018-10-16T11:33:34.281Z,4.07
2018-10-16T11:34:34.753Z,4.10
2018-10-16T11:35:35.228Z,4.10
2018-10-16T11:36:35.706Z,4.08
2018-10-16T11:37:36.178Z,4.10
2018-10-16T11:38:36.653Z,4.00
2018-10-16T11:39:37.127Z,3.90
2018-10-16T11:40:37.602Z,3.90
2018-10-16T11:41:38.077Z,3.91
2018-10-16T11:42:38.553Z,3.95
2018-10-16T11:43:39.028Z,3.96
2018-10-16T11:44:39.701Z,3.98
2018-10-16T11:45:40.016Z,4.05
2018-10-16T11:46:40.448Z,4.08
2018-10-16T11:47:40.921Z,4.21
2018-10-16T11:48:41.392Z,4.42
2018-10-16T11:49:41.870Z,4.54
2018-10-16T11:50:42.343Z,4.70
2018-10-16T11:51:42.816Z,4.74
2018-10-16T11:52:43.289Z,4.69
2018-10-16T11:53:43.761Z,4.54
2018-10-16T11:54:44.234Z,4.43
2018-10-16T11:55:44.709Z,4.50
2018-10-16T11:56:45.181Z,4.63
2018-10-16T11:57:45.655Z,4.70
2018-10-16T11:58:46.128Z,4.65
2018-10-16T11:59:46.606Z,4.55
2018-10-16T12:00:47.075Z,4.54
2018-10-16T12:01:47.552Z,4.46
2018-10-16T12:02:48.021Z,4.36
2018-10-16T12:03:48.497Z,4.28
2018-10-16T12:04:48.965Z,4.32
2018-10-16T12:05:49.534Z,4.42
2018-10-16T12:06:49.965Z,4.52
2018-10-16T12:07:50.415Z,4.57
2018-10-16T12:08:51.060Z,4.53
2018-10-16T12:09:51.328Z,4.34
2018-10-16T12:10:51.870Z,4.34
2018-10-16T12:11:52.275Z,4.50
2018-10-16T12:12:52.777Z,4.58
2018-10-16T12:13:53.262Z,4.62
2018-10-16T12:14:53.693Z,4.62
2018-10-16T12:15:54.163Z,4.50
2018-10-16T12:16:54.682Z,4.39
2018-10-16T12:17:55.109Z,4.39
2018-10-16T12:18:55.584Z,4.37
2018-10-16T12:19:56.074Z,4.34
2018-10-16T12:20:56.540Z,4.25
2018-10-16T12:21:56.997Z,4.31
2018-10-16T12:22:57.467Z,4.35
2018-10-16T12:23:57.957Z,4.27
2018-10-16T12:24:58.461Z,4.14
2018-10-16T12:25:59.086Z,4.06
2018-10-16T12:26:59.417Z,3.90
2018-10-16T12:27:59.829Z,3.98
2018-10-16T12:29:00.363Z,4.14
2018-10-16T12:30:00.772Z,4.14
2018-10-16T12:31:01.272Z,4.18
2018-10-16T12:32:01.749Z,4.25
2018-10-16T12:33:02.245Z,4.26
2018-10-16T12:34:02.658Z,4.42
2018-10-16T12:35:03.132Z,4.48
2018-10-16T12:36:03.603Z,4.55
2018-10-16T12:37:04.085Z,4.57
2018-10-16T12:38:04.547Z,4.48
2018-10-16T12:39:05.024Z,4.52
2018-10-16T12:40:05.549Z,4.63
2018-10-16T12:41:05.999Z,4.61
2018-10-16T12:42:06.442Z,4.54
2018-10-16T12:43:06.968Z,4.14
2018-10-16T12:44:07.378Z,3.94
2018-10-16T12:45:07.913Z,3.85
2018-10-16T12:46:08.407Z,3.78
2018-10-16T12:47:08.828Z,3.79
2018-10-16T12:48:09.358Z,3.67
2018-10-16T12:49:09.732Z,3.52
2018-10-16T12:50:10.262Z,3.54
2018-10-16T12:51:10.819Z,3.80
2018-10-16T12:52:11.150Z,3.94
2018-10-16T12:53:11.662Z,4.14
2018-10-16T12:54:12.150Z,4.19
2018-10-16T12:55:12.562Z,4.10
2018-10-16T12:56:13.115Z,3.82
2018-10-16T12:57:13.509Z,3.90
2018-10-16T12:58:13.977Z,4.15
2018-10-16T12:59:14.519Z,4.32
2018-10-16T13:00:14.986Z,4.41
2018-10-16T13:01:15.394Z,4.41
2018-10-16T13:02:15.892Z,4.40
2018-10-16T13:03:16.366Z,4.46
2018-10-16T13:04:16.808Z,4.52
2018-10-16T13:05:17.309Z,4.68
2018-10-16T13:06:17.749Z,4.90
2018-10-16T13:07:18.219Z,4.92
2018-10-16T13:08:18.691Z,4.73
2018-10-16T13:09:19.162Z,4.30
2018-10-16T13:10:19.634Z,3.90
2018-10-16T13:11:20.105Z,3.70